Laarne, Belgium
Current Conditions -  °F | °C
As of 9:20 AM on Monday 26 Jan 2015 (Local Time) from EBAW Reporting Station
Haze Haze  
Wind Chill: 39°   Ceiling: 200
Heat Index: 43°   Visibility: 0.62mi
Dew Point: 41°   Wind: 6mph
Humidity: 93%   Direction: 220°SW
Pressure: 30.15"   Gusts: NA
Location:  51.03°N, 3.85°E
Report Text: EBAW 260820Z 22005KT 180V240 1000 R11/1800N R29/1600D BR SCT001 BKN002 06/05 Q1021 TEMPO 0800 FG
Loading
Personal Weather Stations






























Interactive Weather Map New forecast layout! Learn more

10-Day Weather Forecast

Advertisements
Track Severe Weather on mobile